Time;durP1;ratioP1;P1;durP2;ratioP2;P2;SDS_P1;SDS_P2;PMS_P1;PMS_P2;Temp;Humidity;BMP_temperature;BMP_pressure;BME280_temperature;BME280_humidity;BME280_pressure;Samples;Min_cycle;Max_cycle;Signal;HPM_P1;HPM_P2
2021/06/06 00:04:22;;;;;;;37.08;19.10;;;17.10;99.90;;;;;;10301760;28;20914;-60
2021/06/06 00:09:43;;;;;;;38.63;18.98;;;17.10;99.90;;;;;;10252574;28;20041;-59
2021/06/06 00:14:44;;;;;;;34.60;19.15;;;17.10;99.90;;;;;;10297166;28;20131;-59
2021/06/06 00:19:46;;;;;;;44.30;20.45;;;17.10;99.90;;;;;;10285659;28;20478;-59
2021/06/06 00:24:47;;;;;;;39.45;21.05;;;17.10;99.90;;;;;;10289096;28;20143;-59
2021/06/06 00:29:50;;;;;;;39.70;19.83;;;17.10;99.90;;;;;;10296765;28;20066;-59
2021/06/06 00:34:52;;;;;;;40.65;20.58;;;17.10;99.90;;;;;;10304722;28;20043;-60
2021/06/06 00:39:54;;;;;;;44.80;23.63;;;17.10;99.90;;;;;;10289906;28;20127;-59
2021/06/06 00:44:55;;;;;;;39.67;22.25;;;17.10;99.90;;;;;;10286710;28;20050;-59
2021/06/06 00:49:57;;;;;;;42.28;22.00;;;17.10;99.90;;;;;;10287926;28;20067;-59
2021/06/06 00:54:59;;;;;;;38.53;21.23;;;17.20;99.90;;;;;;10300657;28;20055;-58
2021/06/06 01:00:22;;;;;;;48.88;22.58;;;17.20;99.90;;;;;;10289035;28;20137;-59
2021/06/06 01:05:32;;;;;;;45.47;22.52;;;17.10;99.90;;;;;;10279936;28;20071;-60
2021/06/06 01:10:35;;;;;;;51.92;24.30;;;17.10;99.90;;;;;;10290404;28;21001;-60
2021/06/06 01:15:39;;;;;;;57.70;27.42;;;17.20;99.90;;;;;;10278272;28;20105;-61
2021/06/06 01:21:02;;;;;;;50.67;26.60;;;17.10;99.90;;;;;;10286926;28;20148;-59
2021/06/06 01:26:14;;;;;;;57.30;27.48;;;17.00;99.90;;;;;;10297878;28;20065;-61
2021/06/06 01:31:18;;;;;;;54.70;27.08;;;17.00;99.90;;;;;;10292998;28;20082;-60
2021/06/06 01:36:27;;;;;;;56.30;28.85;;;17.00;99.90;;;;;;10299889;28;20057;-59
2021/06/06 01:41:35;;;;;;;56.70;28.08;;;17.00;99.90;;;;;;10288584;28;20082;-60
2021/06/06 01:46:44;;;;;;;53.67;26.63;;;16.90;99.90;;;;;;10295426;28;20521;-59
2021/06/06 01:51:54;;;;;;;61.83;28.85;;;16.90;99.90;;;;;;10283513;28;20051;-59
2021/06/06 01:56:56;;;;;;;54.28;27.55;;;16.90;99.90;;;;;;10282131;28;20050;-61
2021/06/06 02:01:58;;;;;;;57.60;28.50;;;16.90;99.90;;;;;;10264767;28;20112;-60
2021/06/06 02:07:08;;;;;;;66.03;29.42;;;16.80;99.90;;;;;;10294519;28;20046;-60
2021/06/06 02:12:10;;;;;;;60.22;28.77;;;16.80;99.90;;;;;;10301385;28;20042;-60
2021/06/06 02:17:24;;;;;;;70.22;30.70;;;16.70;99.90;;;;;;10293207;28;20038;-59
2021/06/06 02:22:29;;;;;;;73.53;31.33;;;16.50;99.90;;;;;;10288483;28;20058;-59
2021/06/06 02:27:53;;;;;;;76.15;31.90;;;16.50;99.90;;;;;;10284040;28;20090;-60
2021/06/06 02:32:59;;;;;;;80.93;33.95;;;16.40;99.90;;;;;;10284953;28;20041;-60
2021/06/06 02:38:07;;;;;;;78.97;32.67;;;16.40;99.90;;;;;;10288555;28;20599;-60
2021/06/06 02:43:22;;;;;;;81.63;32.50;;;16.30;99.90;;;;;;10293057;28;20363;-59
2021/06/06 02:48:30;;;;;;;85.78;35.30;;;16.20;99.90;;;;;;10295592;28;20084;-59
2021/06/06 02:53:37;;;;;;;84.88;33.65;;;16.20;99.90;;;;;;10288985;28;20055;-59
2021/06/06 02:58:47;;;;;;;78.75;33.92;;;16.10;99.90;;;;;;10286997;28;20066;-60
2021/06/06 03:03:50;;;;;;;77.95;32.67;;;16.10;99.90;;;;;;10286019;28;20074;-61
2021/06/06 03:08:51;;;;;;;75.07;32.90;;;16.10;99.90;;;;;;10289826;28;20125;-59
2021/06/06 03:13:59;;;;;;;69.32;31.58;;;16.10;99.90;;;;;;10289060;28;20106;-61
2021/06/06 03:19:03;;;;;;;68.97;31.05;;;16.20;99.90;;;;;;10287910;28;20062;-63
2021/06/06 03:24:18;;;;;;;61.65;30.42;;;16.20;99.90;;;;;;10297106;28;20055;-62
2021/06/06 03:29:24;;;;;;;64.15;28.92;;;16.10;99.90;;;;;;10255698;28;20117;-63
2021/06/06 03:34:26;;;;;;;55.78;27.42;;;16.20;99.90;;;;;;10283985;28;20047;-63
2021/06/06 03:39:28;;;;;;;59.15;28.08;;;16.20;99.90;;;;;;10289607;28;20114;-63
2021/06/06 03:44:30;;;;;;;55.00;26.27;;;16.20;99.90;;;;;;10272205;28;20055;-63
2021/06/06 03:49:32;;;;;;;59.28;27.52;;;16.10;99.90;;;;;;10286866;28;20047;-63
2021/06/06 03:54:33;;;;;;;49.10;25.73;;;16.10;99.90;;;;;;10282656;28;20149;-63
2021/06/06 03:59:35;;;;;;;47.60;24.33;;;16.10;99.90;;;;;;10288641;28;20516;-63
2021/06/06 04:04:37;;;;;;;52.00;23.52;;;16.10;99.90;;;;;;10282470;28;20059;-64
2021/06/06 04:09:39;;;;;;;50.78;24.42;;;16.20;99.90;;;;;;10298112;28;20068;-63
2021/06/06 04:14:40;;;;;;;47.50;22.90;;;16.20;99.90;;;;;;10279360;28;20065;-63
2021/06/06 04:19:42;;;;;;;43.15;22.30;;;16.20;99.90;;;;;;10294413;28;20513;-63
2021/06/06 04:24:43;;;;;;;39.28;21.02;;;16.20;99.90;;;;;;10295846;28;20067;-63
2021/06/06 04:29:46;;;;;;;38.95;21.17;;;16.20;99.90;;;;;;10302180;28;20055;-64
2021/06/06 04:34:48;;;;;;;36.78;19.27;;;16.20;99.90;;;;;;10310688;28;20046;-64
2021/06/06 04:39:50;;;;;;;29.92;17.15;;;16.20;99.90;;;;;;10296434;28;20078;-64
2021/06/06 04:44:52;;;;;;;27.13;15.20;;;16.30;99.90;;;;;;10297119;28;20178;-64
2021/06/06 04:49:54;;;;;;;22.02;13.23;;;16.30;99.90;;;;;;10287792;28;20132;-64
2021/06/06 04:54:55;;;;;;;18.63;11.80;;;16.30;99.90;;;;;;10284610;28;20042;-63
2021/06/06 04:59:57;;;;;;;18.83;10.77;;;16.30;99.90;;;;;;10301190;28;20054;-64
2021/06/06 05:04:59;;;;;;;17.05;9.57;;;16.40;99.90;;;;;;10295725;28;20989;-64
2021/06/06 05:10:02;;;;;;;14.95;9.07;;;16.40;99.90;;;;;;10281628;28;20113;-64
2021/06/06 05:15:05;;;;;;;15.27;10.10;;;16.40;99.90;;;;;;10295528;28;20643;-64
2021/06/06 05:20:08;;;;;;;16.38;9.35;;;16.50;99.90;;;;;;10294907;28;20050;-63
2021/06/06 05:25:13;;;;;;;17.48;9.98;;;16.50;99.90;;;;;;10276318;28;20105;-63
2021/06/06 05:30:23;;;;;;;14.55;9.50;;;16.50;99.90;;;;;;10288796;28;20085;-63
2021/06/06 05:35:27;;;;;;;15.40;8.93;;;16.60;99.90;;;;;;10277244;28;20082;-63
2021/06/06 05:40:30;;;;;;;11.82;8.35;;;16.60;99.90;;;;;;10284229;28;20494;-63
2021/06/06 05:45:33;;;;;;;12.88;9.00;;;16.60;99.90;;;;;;10293157;28;20054;-63
2021/06/06 05:50:39;;;;;;;14.88;8.50;;;16.50;99.90;;;;;;10298987;28;20054;-63
2021/06/06 05:55:43;;;;;;;15.13;8.77;;;16.60;99.90;;;;;;10274375;28;20083;-63
2021/06/06 06:00:46;;;;;;;18.92;8.82;;;16.60;99.90;;;;;;10275321;28;20046;-63
2021/06/06 06:05:48;;;;;;;12.18;8.25;;;16.60;99.90;;;;;;10301219;28;20141;-63
2021/06/06 06:10:52;;;;;;;15.43;8.32;;;16.70;99.90;;;;;;10283069;28;20508;-62
2021/06/06 06:15:56;;;;;;;12.25;7.70;;;16.70;99.90;;;;;;10298296;28;20097;-62
2021/06/06 06:20:59;;;;;;;14.13;8.98;;;16.70;99.90;;;;;;10294772;28;20051;-63
2021/06/06 06:26:01;;;;;;;16.17;8.65;;;16.70;99.90;;;;;;10283995;28;20042;-63
2021/06/06 06:31:03;;;;;;;12.93;8.52;;;16.60;99.90;;;;;;10296754;28;20062;-63
2021/06/06 06:36:06;;;;;;;12.32;7.85;;;16.70;99.90;;;;;;10294606;28;20055;-63
2021/06/06 06:41:08;;;;;;;11.02;7.63;;;16.70;99.90;;;;;;10289400;28;20101;-63
2021/06/06 06:46:11;;;;;;;12.02;7.55;;;16.70;99.90;;;;;;10294456;28;20049;-63
2021/06/06 06:51:13;;;;;;;10.90;7.25;;;16.70;99.90;;;;;;10284068;28;20050;-63
2021/06/06 06:56:15;;;;;;;12.20;7.13;;;16.80;99.90;;;;;;10286681;28;20057;-63
2021/06/06 07:01:18;;;;;;;14.55;7.18;;;16.70;99.90;;;;;;10263902;28;20110;-63
2021/06/06 07:06:21;;;;;;;10.50;6.95;;;16.70;99.90;;;;;;10275434;28;20068;-63
2021/06/06 07:11:23;;;;;;;14.65;6.95;;;16.70;99.90;;;;;;10299910;28;20067;-63
2021/06/06 07:16:25;;;;;;;13.50;7.28;;;16.70;99.90;;;;;;10291161;28;20054;-63
2021/06/06 07:21:27;;;;;;;11.35;6.95;;;16.60;99.90;;;;;;10286536;28;20532;-63
2021/06/06 07:26:35;;;;;;;10.48;6.05;;;16.60;99.90;;;;;;10292737;28;20057;-63
2021/06/06 07:31:39;;;;;;;11.20;5.97;;;16.70;99.90;;;;;;10286935;28;20050;-61
2021/06/06 07:36:46;;;;;;;9.80;5.93;;;16.60;99.90;;;;;;10278758;28;20488;-61
2021/06/06 07:41:48;;;;;;;9.63;5.03;;;16.70;99.90;;;;;;10276825;28;20042;-62
2021/06/06 07:46:50;;;;;;;8.73;5.00;;;16.70;99.90;;;;;;10289699;28;20225;-67
2021/06/06 07:51:52;;;;;;;8.75;4.72;;;16.80;99.90;;;;;;10278707;28;20081;-66
2021/06/06 07:56:57;;;;;;;7.72;4.10;;;16.90;99.90;;;;;;10289627;28;20128;-67
2021/06/06 08:01:59;;;;;;;8.90;4.30;;;17.00;99.90;;;;;;10294643;28;20050;-62
2021/06/06 08:07:01;;;;;;;7.40;3.70;;;17.00;99.90;;;;;;10302365;28;20532;-61
2021/06/06 08:12:03;;;;;;;5.53;3.70;;;17.10;99.90;;;;;;10299571;28;20852;-62
2021/06/06 08:17:05;;;;;;;4.80;3.53;;;17.20;99.90;;;;;;10301363;28;20491;-62
2021/06/06 08:22:07;;;;;;;4.10;2.85;;;17.30;99.90;;;;;;10289676;28;20066;-62
2021/06/06 08:27:09;;;;;;;4.72;2.60;;;17.30;99.90;;;;;;10283610;28;20165;-62
2021/06/06 08:32:12;;;;;;;4.82;2.92;;;17.50;99.90;;;;;;10309724;28;20042;-62
2021/06/06 08:37:14;;;;;;;5.13;2.60;;;17.50;99.90;;;;;;10295549;28;20051;-62
2021/06/06 08:42:22;;;;;;;3.90;2.65;;;17.70;99.90;;;;;;10297245;28;20088;-62
2021/06/06 08:47:28;;;;;;;4.85;2.42;;;17.70;99.90;;;;;;10306786;28;20050;-62
2021/06/06 08:52:45;;;;;;;6.15;2.50;;;17.80;99.90;;;;;;10300877;28;20058;-62
2021/06/06 08:57:49;;;;;;;4.53;2.80;;;17.90;99.90;;;;;;10237702;28;20109;-62
2021/06/06 09:02:58;;;;;;;3.65;2.20;;;17.90;99.90;;;;;;10287939;28;20086;-62
2021/06/06 09:08:02;;;;;;;5.30;2.83;;;18.10;99.90;;;;;;10286378;28;20557;-62
2021/06/06 09:13:08;;;;;;;3.97;2.92;;;18.10;99.90;;;;;;10299160;28;20047;-62
2021/06/06 09:18:23;;;;;;;5.47;3.20;;;18.30;99.90;;;;;;10284534;28;20051;-62
2021/06/06 09:23:25;;;;;;;4.15;2.90;;;18.20;99.90;;;;;;10313118;28;20055;-61
2021/06/06 09:28:30;;;;;;;4.22;2.85;;;18.40;99.90;;;;;;10294077;28;20058;-60
2021/06/06 09:33:36;;;;;;;5.20;3.10;;;18.60;99.90;;;;;;10276423;28;20051;-60
2021/06/06 09:38:40;;;;;;;5.97;3.63;;;18.60;99.90;;;;;;10280409;28;20050;-60
2021/06/06 09:44:06;;;;;;;4.97;3.17;;;18.50;99.90;;;;;;10286947;28;20051;-60
2021/06/06 09:49:14;;;;;;;5.45;3.10;;;18.80;99.90;;;;;;10298524;28;20543;-60
2021/06/06 09:54:27;;;;;;;6.65;3.63;;;19.00;99.90;;;;;;10304865;28;20468;-61
2021/06/06 09:59:34;;;;;;;6.07;2.72;;;19.30;99.90;;;;;;10294465;28;20136;-62
2021/06/06 10:04:42;;;;;;;5.00;3.30;;;19.90;99.90;;;;;;10294463;28;20077;-61
2021/06/06 10:09:50;;;;;;;5.00;2.92;;;20.20;99.90;;;;;;10276348;28;20117;-61
2021/06/06 10:15:13;;;;;;;4.78;2.50;;;20.30;99.90;;;;;;10299556;28;20082;-61
2021/06/06 10:20:22;;;;;;;3.97;2.80;;;20.50;99.90;;;;;;10241804;28;20140;-61
2021/06/06 10:25:28;;;;;;;4.03;2.70;;;20.20;99.90;;;;;;10293628;28;20047;-61
2021/06/06 10:30:46;;;;;;;4.43;2.05;;;20.30;99.90;;;;;;10291524;28;20079;-61
2021/06/06 10:35:50;;;;;;;5.07;1.98;;;20.50;99.90;;;;;;10231408;28;20042;-66
2021/06/06 10:40:54;;;;;;;4.18;2.20;;;21.00;99.90;;;;;;10295209;28;20055;-63
2021/06/06 10:46:19;;;;;;;5.13;2.83;;;21.30;99.90;;;;;;10283400;28;20082;-63
2021/06/06 10:51:49;;;;;;;4.28;2.95;;;21.90;99.90;;;;;;10243370;28;20113;-63
2021/06/06 10:56:59;;;;;;;5.05;2.47;;;21.50;99.90;;;;;;10220600;28;20109;-63
2021/06/06 11:02:05;;;;;;;5.30;3.50;;;21.40;99.90;;;;;;10298353;28;20486;-64
2021/06/06 11:07:15;;;;;;;5.67;3.63;;;21.40;99.90;;;;;;10282561;28;20047;-64
2021/06/06 11:12:36;;;;;;;4.07;2.90;;;21.30;99.90;;;;;;10287320;28;20057;-64
2021/06/06 11:17:39;;;;;;;5.13;3.40;;;21.40;99.90;;;;;;10278244;28;20078;-63
2021/06/06 11:22:47;;;;;;;5.07;3.40;;;21.50;99.90;;;;;;10280808;28;20046;-63
2021/06/06 11:27:59;;;;;;;5.85;4.65;;;21.90;99.90;;;;;;10292004;28;20394;-63
2021/06/06 11:33:14;;;;;;;5.05;3.45;;;21.80;99.40;;;;;;10303800;28;20425;-62
2021/06/06 11:38:54;;;;;;;6.88;3.35;;;22.20;99.70;;;;;;10283145;28;20046;-62
2021/06/06 11:44:00;;;;;;;4.25;3.25;;;22.30;97.90;;;;;;10210589;28;20109;-62
2021/06/06 11:49:27;;;;;;;5.57;3.33;;;22.40;96.50;;;;;;10274611;28;20043;-61
2021/06/06 11:54:34;;;;;;;;;;;22.20;96.70;;;;;;10292567;28;20079;-62
2021/06/06 12:00:08;;;;;;;5.00;3.65;;;22.00;97.20;;;;;;10278340;28;20883;-62
2021/06/06 12:05:15;;;;;;;;;;;21.70;97.40;;;;;;10232365;28;20046;-61
2021/06/06 12:10:32;;;;;;;6.50;3.10;;;22.40;97.80;;;;;;10284057;28;20016;-62
2021/06/06 12:15:40;;;;;;;5.35;4.07;;;22.70;98.00;;;;;;10276217;28;20137;-61
2021/06/06 12:20:49;;;;;;;4.72;3.50;;;22.80;94.80;;;;;;10286714;28;20084;-63
2021/06/06 12:25:52;;;;;;;5.03;3.50;;;22.50;95.50;;;;;;10275601;28;20118;-63
2021/06/06 12:31:02;;;;;;;4.82;2.67;;;22.50;95.50;;;;;;10280618;28;20489;-63
2021/06/06 12:36:13;;;;;;;3.42;2.83;;;22.60;93.90;;;;;;10269231;28;20349;-61
2021/06/06 12:41:15;;;;;;;6.15;3.70;;;22.30;94.90;;;;;;10281031;28;20078;-61
2021/06/06 12:46:17;;;;;;;4.80;3.22;;;22.40;95.70;;;;;;10285071;28;20129;-62
2021/06/06 12:51:35;;;;;;;4.50;3.97;;;22.20;96.20;;;;;;10289429;28;20054;-61
2021/06/06 12:56:38;;;;;;;6.55;3.45;;;22.10;95.80;;;;;;10288895;28;20104;-61
2021/06/06 13:01:41;;;;;;;4.80;3.88;;;21.80;96.30;;;;;;10289977;28;20097;-61
2021/06/06 13:06:43;;;;;;;5.88;3.90;;;21.70;96.90;;;;;;10304893;28;20097;-61
2021/06/06 13:11:48;;;;;;;7.07;4.38;;;22.00;96.50;;;;;;10290565;28;20108;-62
2021/06/06 13:16:58;;;;;;;5.50;3.95;;;22.00;96.10;;;;;;10299945;28;20058;-62
2021/06/06 13:22:00;;;;;;;5.80;4.20;;;22.60;96.50;;;;;;10283521;28;20959;-62
2021/06/06 13:27:27;;;;;;;4.07;3.55;;;22.40;94.80;;;;;;10251459;28;20054;-62
2021/06/06 13:32:33;;;;;;;5.90;3.95;;;22.30;96.30;;;;;;10264013;28;20057;-63
2021/06/06 13:37:36;;;;;;;5.38;4.10;;;22.00;94.70;;;;;;10260527;28;20128;-63
2021/06/06 13:42:38;;;;;;;6.53;4.30;;;21.80;96.40;;;;;;10261436;28;20046;-62
2021/06/06 13:47:40;;;;;;;6.45;4.20;;;22.10;95.50;;;;;;10271325;28;20062;-61
2021/06/06 13:52:42;;;;;;;7.50;4.75;;;21.90;95.40;;;;;;10268537;28;20062;-61
2021/06/06 13:57:44;;;;;;;6.93;5.43;;;21.60;95.40;;;;;;10274769;28;20058;-61
2021/06/06 14:02:49;;;;;;;8.30;5.50;;;21.30;96.30;;;;;;10261493;28;20101;-61
2021/06/06 14:07:51;;;;;;;9.73;5.68;;;20.80;97.50;;;;;;10276310;28;20086;-61
2021/06/06 14:12:53;;;;;;;12.27;6.60;;;20.70;99.90;;;;;;10274257;28;20117;-61
2021/06/06 14:17:55;;;;;;;10.75;6.35;;;20.60;99.90;;;;;;10265130;28;20043;-61
2021/06/06 14:22:57;;;;;;;13.60;7.57;;;20.60;99.90;;;;;;10262941;28;20050;-61
2021/06/06 14:28:00;;;;;;;11.02;7.13;;;20.40;99.90;;;;;;10258742;28;20077;-61
2021/06/06 14:33:04;;;;;;;10.43;6.95;;;20.30;99.90;;;;;;10265931;28;20583;-60
2021/06/06 14:38:07;;;;;;;12.68;7.53;;;20.30;99.90;;;;;;10261409;28;20516;-60
2021/06/06 14:43:13;;;;;;;10.25;7.07;;;19.90;99.90;;;;;;10274736;28;20042;-61
2021/06/06 14:48:18;;;;;;;11.60;8.15;;;19.60;99.90;;;;;;10266345;28;20137;-62
2021/06/06 14:53:22;;;;;;;10.07;7.30;;;19.60;99.90;;;;;;10257670;28;20062;-61
2021/06/06 14:58:28;;;;;;;9.75;6.25;;;19.60;99.90;;;;;;10276523;28;22496;-60
2021/06/06 15:03:29;;;;;;;10.23;6.40;;;19.60;99.90;;;;;;10278157;28;20059;-60
2021/06/06 15:08:31;;;;;;;11.55;6.25;;;19.70;99.90;;;;;;10254650;28;21002;-61
2021/06/06 15:13:35;;;;;;;10.25;5.75;;;19.80;99.90;;;;;;10258910;28;20073;-60
2021/06/06 15:18:38;;;;;;;8.50;5.60;;;19.70;99.90;;;;;;10265218;28;20050;-61
2021/06/06 15:23:40;;;;;;;8.20;5.38;;;19.70;99.90;;;;;;10264924;28;20062;-59
2021/06/06 15:28:42;;;;;;;10.57;6.18;;;19.70;99.90;;;;;;10256503;28;20070;-59
2021/06/06 15:33:45;;;;;;;11.73;5.80;;;19.60;99.90;;;;;;10260268;28;20489;-60
2021/06/06 15:38:48;;;;;;;10.65;5.90;;;19.40;99.90;;;;;;10265283;28;20083;-60
2021/06/06 15:43:51;;;;;;;10.07;5.63;;;19.50;99.90;;;;;;10261488;28;20065;-60
2021/06/06 15:48:53;;;;;;;7.40;5.10;;;19.40;99.90;;;;;;10259211;28;20598;-60
2021/06/06 15:53:57;;;;;;;11.15;6.15;;;19.20;99.90;;;;;;10271496;28;20117;-60
2021/06/06 15:58:59;;;;;;;6.50;4.90;;;19.20;99.90;;;;;;10269322;28;20112;-60
2021/06/06 16:04:01;;;;;;;9.45;5.18;;;19.10;99.90;;;;;;10265684;28;20109;-60
2021/06/06 16:09:03;;;;;;;9.88;5.68;;;19.10;99.90;;;;;;10261058;28;20456;-60
2021/06/06 16:14:06;;;;;;;7.43;5.47;;;19.00;99.90;;;;;;10272136;28;20081;-60
2021/06/06 16:19:08;;;;;;;10.50;6.28;;;19.00;99.90;;;;;;10264663;28;20081;-61
2021/06/06 16:24:10;;;;;;;10.38;6.07;;;18.70;99.90;;;;;;10273691;28;20089;-60
2021/06/06 16:29:11;;;;;;;9.70;6.20;;;18.60;99.90;;;;;;10264879;28;20133;-60
2021/06/06 16:34:14;;;;;;;9.23;6.20;;;18.50;99.90;;;;;;10284972;28;20074;-61
2021/06/06 16:39:15;;;;;;;7.88;5.05;;;18.40;99.90;;;;;;10308363;28;20054;-60
2021/06/06 16:44:17;;;;;;;9.88;6.05;;;18.40;99.90;;;;;;10295184;28;20166;-60
2021/06/06 16:49:19;;;;;;;10.20;5.63;;;18.40;99.90;;;;;;10270851;28;20094;-60
2021/06/06 16:54:21;;;;;;;8.63;5.90;;;18.40;99.90;;;;;;10290863;28;20568;-60
2021/06/06 16:59:22;;;;;;;9.73;6.07;;;18.40;99.90;;;;;;10273608;28;20408;-61
2021/06/06 17:04:24;;;;;;;11.43;6.82;;;18.30;99.90;;;;;;10290682;28;21111;-60
2021/06/06 17:09:26;;;;;;;12.60;7.20;;;18.20;99.90;;;;;;10300577;28;20383;-59
2021/06/06 17:14:30;;;;;;;11.88;7.32;;;18.10;99.90;;;;;;10289070;28;20556;-60
2021/06/06 17:19:31;;;;;;;12.77;7.30;;;17.90;99.90;;;;;;10278041;28;20050;-61
2021/06/06 17:24:33;;;;;;;12.38;7.53;;;17.90;99.90;;;;;;10281982;28;20055;-62
2021/06/06 17:29:35;;;;;;;18.55;7.22;;;17.90;99.90;;;;;;10291950;28;20058;-62
2021/06/06 17:34:37;;;;;;;12.95;8.48;;;17.90;99.90;;;;;;10292821;28;20070;-62
2021/06/06 17:39:38;;;;;;;13.95;8.23;;;17.90;99.90;;;;;;10301886;28;20055;-61
2021/06/06 17:44:40;;;;;;;17.73;9.38;;;18.00;99.90;;;;;;10284611;28;20084;-62
2021/06/06 17:49:41;;;;;;;17.05;9.00;;;17.90;99.90;;;;;;10292383;28;20106;-61
2021/06/06 17:54:45;;;;;;;20.73;10.50;;;17.90;99.90;;;;;;10291175;28;20082;-62
2021/06/06 17:59:46;;;;;;;17.75;10.13;;;17.90;99.90;;;;;;10294226;28;20066;-62
2021/06/06 18:04:48;;;;;;;22.73;10.00;;;17.90;99.90;;;;;;10287468;28;20108;-62
2021/06/06 18:09:49;;;;;;;17.50;10.23;;;17.90;99.90;;;;;;10302977;28;20050;-63
2021/06/06 18:14:51;;;;;;;21.88;10.07;;;18.00;99.90;;;;;;10318568;28;20074;-62
2021/06/06 18:19:53;;;;;;;23.08;12.38;;;18.00;99.90;;;;;;10294539;28;20074;-62
2021/06/06 18:24:54;;;;;;;19.73;11.18;;;18.00;99.90;;;;;;10290932;28;20457;-62
2021/06/06 18:29:56;;;;;;;27.45;11.68;;;18.00;99.90;;;;;;10292208;28;20426;-62
2021/06/06 18:34:58;;;;;;;22.30;11.93;;;17.90;99.90;;;;;;10291133;28;20116;-61
2021/06/06 18:40:01;;;;;;;25.63;11.48;;;17.90;99.90;;;;;;10278692;28;20117;-63
2021/06/06 18:45:07;;;;;;;22.23;11.70;;;17.90;99.90;;;;;;10286552;28;20062;-63
2021/06/06 18:50:12;;;;;;;28.00;12.20;;;17.90;99.90;;;;;;10269200;28;20066;-63
2021/06/06 18:55:18;;;;;;;21.23;11.38;;;17.80;99.90;;;;;;10259711;28;20710;-63
2021/06/06 19:00:40;;;;;;;21.57;12.73;;;17.80;99.90;;;;;;10260943;28;20054;-63
2021/06/06 19:05:43;;;;;;;22.85;12.05;;;17.80;99.90;;;;;;10258354;28;20050;-62
2021/06/06 19:10:46;;;;;;;25.98;11.35;;;17.80;99.90;;;;;;10250646;28;20070;-63
2021/06/06 19:15:49;;;;;;;19.95;11.00;;;17.80;99.90;;;;;;10262367;28;20054;-63
2021/06/06 19:20:51;;;;;;;24.45;11.13;;;17.90;99.90;;;;;;10267053;28;20173;-63
2021/06/06 19:25:54;;;;;;;17.63;9.25;;;17.80;99.90;;;;;;10270343;28;20133;-62
2021/06/06 19:30:57;;;;;;;17.13;9.18;;;17.80;99.90;;;;;;10272081;28;20058;-63
2021/06/06 19:35:59;;;;;;;18.48;10.02;;;17.80;99.90;;;;;;10286049;28;20457;-62
2021/06/06 19:41:03;;;;;;;15.98;10.32;;;17.80;99.90;;;;;;10286554;28;20506;-59
2021/06/06 19:46:05;;;;;;;18.42;9.55;;;17.80;99.90;;;;;;10290567;28;20051;-61
2021/06/06 19:51:08;;;;;;;19.80;8.80;;;17.80;99.90;;;;;;10301028;28;20686;-59
2021/06/06 19:56:15;;;;;;;17.15;9.63;;;17.80;99.90;;;;;;10293402;28;20046;-59
2021/06/06 20:01:19;;;;;;;19.60;9.85;;;17.70;99.90;;;;;;10284993;28;20042;-58
2021/06/06 20:06:25;;;;;;;17.63;9.40;;;17.70;99.90;;;;;;10289615;28;20073;-59
2021/06/06 20:11:44;;;;;;;16.00;9.13;;;17.60;99.90;;;;;;10285198;28;20444;-59
2021/06/06 20:16:46;;;;;;;17.67;9.07;;;17.60;99.90;;;;;;10247449;28;20056;-59
2021/06/06 20:21:55;;;;;;;16.02;9.55;;;17.60;99.90;;;;;;10304023;28;20511;-60
2021/06/06 20:26:58;;;;;;;16.85;10.23;;;17.50;99.90;;;;;;10286419;28;20042;-59
2021/06/06 20:32:02;;;;;;;19.02;10.55;;;17.50;99.90;;;;;;10307002;28;20053;-59
2021/06/06 20:37:04;;;;;;;15.18;8.80;;;17.40;99.90;;;;;;10308055;28;20054;-61
2021/06/06 20:42:11;;;;;;;17.63;9.32;;;17.40;99.90;;;;;;10291011;28;20055;-59
2021/06/06 20:47:16;;;;;;;17.92;8.65;;;17.30;99.90;;;;;;10288847;28;20047;-60
2021/06/06 20:52:21;;;;;;;19.02;9.43;;;17.30;99.90;;;;;;10289739;28;20055;-60
2021/06/06 21:03:39;;;;;;;23.95;10.18;;;17.30;99.90;;;;;;10233229;28;20042;-59
2021/06/06 21:08:42;;;;;;;17.88;9.57;;;17.30;99.90;;;;;;10303833;28;20068;-60
2021/06/06 21:13:44;;;;;;;15.80;9.93;;;17.20;99.90;;;;;;10287661;28;20549;-59
2021/06/06 21:18:46;;;;;;;19.88;10.55;;;17.20;99.90;;;;;;10283072;28;20101;-59
2021/06/06 21:23:47;;;;;;;17.05;9.77;;;17.20;99.90;;;;;;10288821;28;20088;-59
2021/06/06 21:28:55;;;;;;;16.73;9.35;;;17.20;99.90;;;;;;10302467;28;20152;-59
2021/06/06 21:33:58;;;;;;;17.10;8.90;;;17.30;99.90;;;;;;10289868;28;20571;-59
2021/06/06 21:39:02;;;;;;;14.95;9.00;;;17.20;99.90;;;;;;10300395;28;20043;-58
2021/06/06 21:44:05;;;;;;;13.68;8.10;;;17.20;99.90;;;;;;10293397;28;20106;-58
2021/06/06 21:49:07;;;;;;;14.45;7.93;;;17.20;99.90;;;;;;10286013;28;20958;-58
2021/06/06 21:54:11;;;;;;;18.17;8.05;;;17.20;99.90;;;;;;10299721;28;20058;-58
2021/06/06 21:59:13;;;;;;;13.65;8.10;;;17.20;99.90;;;;;;10300949;28;20053;-59
2021/06/06 22:04:16;;;;;;;15.45;7.63;;;17.20;99.90;;;;;;10300124;28;20500;-58
2021/06/06 22:09:19;;;;;;;15.32;7.80;;;17.20;99.90;;;;;;10275536;28;20050;-58
2021/06/06 22:14:23;;;;;;;14.15;7.25;;;17.30;99.90;;;;;;10291659;28;20051;-59
2021/06/06 22:20:02;;;;;;;16.13;7.10;;;17.20;99.90;;;;;;10284808;28;20477;-58
2021/06/06 22:25:42;;;;;;;13.02;6.82;;;17.20;99.90;;;;;;10230487;28;20474;-58
2021/06/06 22:31:21;;;;;;;13.52;6.90;;;17.10;99.90;;;;;;10247924;28;20069;-58
2021/06/06 22:37:00;;;;;;;11.07;7.05;;;17.10;99.90;;;;;;10229847;28;20137;-59
2021/06/06 22:42:39;;;;;;;11.52;7.13;;;17.10;99.90;;;;;;10251975;28;20132;-58
2021/06/06 22:48:18;;;;;;;11.13;6.28;;;17.10;99.90;;;;;;10218542;28;20046;-59
2021/06/06 22:53:56;;;;;;;12.13;6.65;;;17.00;99.90;;;;;;10270772;28;20046;-58
2021/06/06 22:59:35;;;;;;;9.88;6.32;;;17.00;99.90;;;;;;10249349;28;20109;-58
2021/06/06 23:05:15;;;;;;;12.10;7.55;;;17.00;99.90;;;;;;10219210;28;20124;-58
2021/06/06 23:10:53;;;;;;;11.77;7.53;;;16.90;99.90;;;;;;10250355;28;20088;-58
2021/06/06 23:15:55;;;;;;;11.13;6.60;;;16.90;99.90;;;;;;10232212;28;20082;-59
2021/06/06 23:20:57;;;;;;;12.13;7.32;;;16.90;99.90;;;;;;10299931;28;20050;-60
2021/06/06 23:25:59;;;;;;;10.10;6.47;;;16.90;99.90;;;;;;10283579;28;20050;-58
2021/06/06 23:31:01;;;;;;;12.45;7.00;;;16.90;99.90;;;;;;10307996;28;20552;-58
2021/06/06 23:36:03;;;;;;;10.23;6.75;;;16.80;99.90;;;;;;10298300;28;20059;-58
2021/06/06 23:41:04;;;;;;;10.82;6.60;;;16.90;99.90;;;;;;10284565;28;20050;-58
2021/06/06 23:46:07;;;;;;;8.38;5.90;;;16.80;99.90;;;;;;10289485;28;20065;-58
2021/06/06 23:51:09;;;;;;;8.80;5.93;;;16.80;99.90;;;;;;10273627;28;20047;-58
2021/06/06 23:56:12;;;;;;;9.00;6.10;;;16.80;99.90;;;;;;10288937;28;20074;-58
